To NAV CANADA Home Page Login to a new session Search on AWWS site Feedback and Comments Disclaimer Vers la page française équivalente Tips FAQ What's new on the site To the Forecasts and Observations / NOTAM section To "File a Flight Plan" website Publications and other links Update of the User's profile FIC Telephone Numbers My Weather Data Folder Route Weather Data Regional Weather Data Local Weather Data To the Forecasts and Observations / NOTAM section
Request Generated 04/01/2015 at 22:31:15 UTC . Weather information available at that time is displayed.

METAR/TAF

GOOSE BAY/NL    

METAR CYYR 012200Z 30005KT 12SM -SHSN FEW007 SCT016 BKN024 M01/M05 A2948 RMK SF1SC2SC4 SLP987=
SPECI CYYR 012119Z 34002KT 6SM -SHSN FEW007 BKN015 BKN030 M01/M04 A2947 RMK SF1SC4SC2 SLP983=
METAR CYYR 012100Z 20002KT 3SM -SHSN FEW006 BKN014 OVC028 M01/M05 A2947 RMK SF1SC4SC3 VIS NNW 8 SLP982=
SPECI CYYR 012023Z 25009KT 4SM -SHSN FEW005 SCT014 BKN021 OVC034 M01/M04 A2946 RMK SF1SC2SC3SC2 VIS N 8 SLP980=
METAR CYYR 012000Z 27005KT 2SM -SHSN FEW005 BKN014 OVC021 M01/M04 A2946 RMK SF1SC5SC2 SLP978=

TAF AMD CYYR 012125Z 0121/0218 32005KT 6SM -SN FEW007 SCT012 BKN030
TEMPO 0121/0209 2SM -SHSN SCT007 BKN012 OVC030
BECMG 0122/0124 32010G20KT
FM020900 32010G20KT 6SM -SN SCT008 OVC025 TEMPO 0209/0218 2SM
-SHSN
RMK NXT FCST BY 020000Z=
Your time UTC time
Weather data provided by Environment Canada and NAV CANADA